Terminal Aerodrome Forecast
Issued by NWS Brownsville, TX

Home | Current Version | Previous Version | Text Only | Print | Product List | Glossary On
Versions: 1 2 3 4 5 6 7 8 9 10 11 12 13 14 15 16 17 18 19 20 21 22 23 24 25 26 27 28 29 30 31 32
000
FTUS44 KBRO 051417 AAA
TAFBRO
TAF AMD
KBRO 051417Z 0514/0612 31011G17KT P6SM -RA SCT020 OVC050
      TEMPO 0514/0517 BKN020
     FM051700 27010KT P6SM SCT040
     FM051900 30014KT P6SM FEW070
     FM060000 VRB04KT P6SM SKC=

USA.gov is the U.S. government's official web portal to all federal, state and local government web resources and services.